Terminal Aerodrome Forecast
Issued by NWS

Home | Current Version | Previous Version | Text Only | Print | Product List | Glossary Off
Versions: 1 2 3 4 5 6 7 8 9 10 11 12 13 14 15 16 17 18 19

000
FTUS43 KMPX 161243 AAA
TAFRNH
TAF AMD
KRNH 161243Z 1613/1712 08006KT P6SM OVC008
     FM161700 09004KT P6SM SCT008 OVC015
     FM170900 VRB02KT 6SM BR OVC009=

USA.gov is the U.S. government's official web portal to all federal, state and local government web resources and services.